createdAt,value
2019-04-12T00:01:20.101Z,3.23
2019-04-12T00:03:48.627Z,3.30
2019-04-12T00:06:17.097Z,3.20
2019-04-12T00:08:45.633Z,3.03
2019-04-12T00:11:14.091Z,3.30
2019-04-12T00:13:42.615Z,3.10
2019-04-12T00:16:11.957Z,3.17
2019-04-12T00:18:42.982Z,3.40
2019-04-12T00:21:14.689Z,3.60
2019-04-12T00:23:42.960Z,3.27
2019-04-12T00:26:11.875Z,2.90
2019-04-12T00:28:40.343Z,3.43
2019-04-12T00:31:08.797Z,3.50
2019-04-12T00:33:37.279Z,3.10
2019-04-12T00:36:05.729Z,3.43
2019-04-12T00:38:34.184Z,3.70
2019-04-12T00:41:02.997Z,3.87
2019-04-12T00:43:34.324Z,3.53
2019-04-12T00:46:05.861Z,3.53
2019-04-12T00:48:32.014Z,3.80
2019-04-12T00:51:00.556Z,3.20
2019-04-12T00:53:29.021Z,3.13
2019-04-12T00:55:58.162Z,4.00
2019-04-12T00:58:26.656Z,3.97
2019-04-12T01:00:56.827Z,3.50
2019-04-12T01:03:25.443Z,3.50
2019-04-12T01:05:55.252Z,3.63
2019-04-12T01:08:23.709Z,3.73
2019-04-12T01:10:54.307Z,3.50
2019-04-12T01:13:26.919Z,3.90
2019-04-12T01:15:53.144Z,3.83
2019-04-12T01:18:21.620Z,3.23
2019-04-12T01:20:50.201Z,3.27
2019-04-12T01:23:18.814Z,3.70
2019-04-12T01:25:47.259Z,3.87
2019-04-12T01:28:17.785Z,3.83
2019-04-12T01:30:45.897Z,3.70
2019-04-12T01:33:14.925Z,3.80
2019-04-12T01:35:43.727Z,3.77
2019-04-12T01:38:12.260Z,3.43
2019-04-12T01:52:21.420Z,3.30
2019-04-12T01:58:49.950Z,4.13
2019-04-12T02:04:37.564Z,3.30
2019-04-12T02:09:56.348Z,3.50
2019-04-12T02:15:46.844Z,3.77
2019-04-12T02:18:52.241Z,3.80
2019-04-12T02:21:20.934Z,3.63
2019-04-12T02:23:49.406Z,3.40
2019-04-12T02:26:49.942Z,3.60
2019-04-12T02:32:57.108Z,4.17
2019-04-12T02:35:44.109Z,4.47
2019-04-12T02:38:12.755Z,3.80
2019-04-12T02:40:42.760Z,4.13
2019-04-12T02:43:44.783Z,4.40
2019-04-12T02:46:49.862Z,3.97
2019-04-12T02:49:21.925Z,4.50
2019-04-12T02:51:55.700Z,3.90
2019-04-12T02:54:43.124Z,4.00
2019-04-12T02:57:20.599Z,4.50
2019-04-12T02:59:49.661Z,4.50
2019-04-12T03:02:20.239Z,3.85
2019-04-12T03:04:49.173Z,4.37
2019-04-12T03:07:18.095Z,4.33
2019-04-12T03:13:13.877Z,3.50
2019-04-12T03:15:43.189Z,4.78
2019-04-12T03:25:06.614Z,4.33
2019-04-12T03:27:35.308Z,4.00
2019-04-12T03:30:47.206Z,4.63
2019-04-12T03:33:43.614Z,4.63
2019-04-12T03:36:25.025Z,5.07
2019-04-12T03:38:54.047Z,4.80
2019-04-12T03:41:22.995Z,4.77
2019-04-12T03:43:52.038Z,4.57
2019-04-12T03:46:20.698Z,3.80
2019-04-12T03:48:49.703Z,4.50
2019-04-12T03:51:50.715Z,5.10
2019-04-12T04:00:56.624Z,4.07
2019-04-12T04:03:34.270Z,4.77
2019-04-12T04:06:05.786Z,4.83
2019-04-12T04:08:34.455Z,4.05
2019-04-12T04:11:03.459Z,5.00
2019-04-12T04:16:21.774Z,4.20
2019-04-12T04:18:51.337Z,4.53
2019-04-12T04:21:30.795Z,4.70
2019-04-12T04:24:21.717Z,4.17
2019-04-12T04:27:00.862Z,5.20
2019-04-12T04:29:32.962Z,4.93
2019-04-12T04:32:06.655Z,4.43
2019-04-12T04:34:35.639Z,4.03
2019-04-12T04:37:04.474Z,4.80
2019-04-12T04:39:37.328Z,4.50
2019-04-12T04:42:06.993Z,3.90
2019-04-12T04:44:35.679Z,4.57
2019-04-12T04:47:05.005Z,4.20
2019-04-12T04:49:33.651Z,4.63
2019-04-12T04:52:02.558Z,5.07
2019-04-12T04:54:31.305Z,4.77
2019-04-12T04:57:00.402Z,4.43
2019-04-12T04:59:29.492Z,4.50
2019-04-12T05:01:58.563Z,5.20
2019-04-12T05:04:27.207Z,5.30
2019-04-12T05:06:55.969Z,6.00
2019-04-12T05:09:24.780Z,5.77
2019-04-12T05:11:57.825Z,4.50
2019-04-12T05:14:26.652Z,4.70
2019-04-12T05:16:55.537Z,4.13
2019-04-12T05:19:24.248Z,4.90
2019-04-12T05:21:53.322Z,5.53
2019-04-12T05:24:22.050Z,5.33
2019-04-12T05:26:50.665Z,4.47
2019-04-12T05:29:19.311Z,7.00
2019-04-12T05:31:48.098Z,5.40
2019-04-12T05:34:17.190Z,5.10
2019-04-12T05:36:45.910Z,5.03
2019-04-12T05:39:14.577Z,4.37
2019-04-12T05:41:46.232Z,4.67
2019-04-12T05:48:00.501Z,5.30
2019-04-12T05:51:04.797Z,4.80
2019-04-12T05:53:33.339Z,4.80
2019-04-12T05:59:44.290Z,4.00
2019-04-12T06:02:36.682Z,4.47
2019-04-12T06:05:22.588Z,4.97
2019-04-12T06:14:06.711Z,4.70
2019-04-12T06:29:24.024Z,3.80
2019-04-12T06:35:34.917Z,4.27
2019-04-12T06:38:03.577Z,4.70
2019-04-12T06:40:34.010Z,4.25
2019-04-12T06:43:02.423Z,4.57
2019-04-12T06:45:44.200Z,4.43
2019-04-12T06:48:12.790Z,4.57
2019-04-12T06:50:42.966Z,4.53
2019-04-12T06:53:11.570Z,4.40
2019-04-12T06:55:44.692Z,4.17
2019-04-12T06:58:13.195Z,3.70
2019-04-12T07:03:38.414Z,4.03
2019-04-12T07:09:23.457Z,4.37
2019-04-12T07:11:54.936Z,3.50
2019-04-12T07:14:23.563Z,4.43
2019-04-12T07:16:52.084Z,4.50
2019-04-12T07:19:22.126Z,4.73
2019-04-12T07:21:50.662Z,5.57
2019-04-12T07:24:53.516Z,4.60
2019-04-12T07:33:47.326Z,5.13
2019-04-12T07:36:15.921Z,4.57
2019-04-12T07:38:44.674Z,4.00
2019-04-12T07:41:31.688Z,4.47
2019-04-12T07:44:07.775Z,4.77
2019-04-12T07:46:48.721Z,4.63
2019-04-12T07:49:37.166Z,4.53
2019-04-12T07:55:25.844Z,4.40
2019-04-12T08:01:57.565Z,4.70
2019-04-12T08:04:30.943Z,4.10
2019-04-12T08:07:01.043Z,4.30
2019-04-12T08:09:44.526Z,4.03
2019-04-12T08:12:13.097Z,4.47
2019-04-12T08:14:41.633Z,5.10
2019-04-12T08:17:11.671Z,4.87
2019-04-12T08:19:40.395Z,4.93
2019-04-12T08:22:09.017Z,4.90
2019-04-12T08:24:37.567Z,4.70
2019-04-12T08:27:06.124Z,4.67
2019-04-12T08:29:34.683Z,4.40
2019-04-12T08:32:11.565Z,4.13
2019-04-12T08:34:44.865Z,4.70
2019-04-12T08:37:19.045Z,4.53
2019-04-12T08:39:45.769Z,4.80
2019-04-12T08:42:14.253Z,3.90
2019-04-12T08:44:42.782Z,4.00
2019-04-12T08:47:13.755Z,4.10
2019-04-12T08:49:49.563Z,4.17
2019-04-12T08:52:16.590Z,4.23
2019-04-12T08:54:45.184Z,3.97
2019-04-12T08:57:14.917Z,4.50
2019-04-12T08:59:43.387Z,4.13
2019-04-12T09:02:11.918Z,3.90
2019-04-12T09:04:40.530Z,3.90
2019-04-12T09:07:10.473Z,3.87
2019-04-12T09:09:39.108Z,3.90
2019-04-12T09:12:07.633Z,3.60
2019-04-12T09:14:36.213Z,4.57
2019-04-12T09:20:04.865Z,3.83
2019-04-12T09:22:47.095Z,4.13
2019-04-12T09:25:32.227Z,3.87
2019-04-12T09:28:00.928Z,4.00
2019-04-12T09:30:29.646Z,4.60
2019-04-12T09:32:58.143Z,4.20
2019-04-12T09:35:26.626Z,4.03
2019-04-12T09:37:55.244Z,3.77
2019-04-12T09:40:25.248Z,3.77
2019-04-12T09:42:53.768Z,3.53
2019-04-12T09:45:22.322Z,3.27
2019-04-12T09:47:50.803Z,3.90
2019-04-12T09:50:19.275Z,4.17
2019-04-12T09:52:47.752Z,3.67
2019-04-12T09:55:16.364Z,4.57
2019-04-12T09:57:44.904Z,5.57
2019-04-12T10:00:13.641Z,4.23
2019-04-12T10:02:42.246Z,4.30
2019-04-12T10:05:10.981Z,4.40
2019-04-12T10:07:39.584Z,5.07
2019-04-12T10:10:08.205Z,4.90
2019-04-12T10:12:36.742Z,4.27
2019-04-12T10:15:08.031Z,4.70
2019-04-12T10:17:36.660Z,4.57
2019-04-12T10:20:06.688Z,3.90
2019-04-12T10:22:35.162Z,4.13
2019-04-12T10:25:05.622Z,5.70
2019-04-12T10:27:34.523Z,3.90
2019-04-12T10:30:04.836Z,4.10
2019-04-12T10:32:33.454Z,3.60
2019-04-12T10:35:01.916Z,3.60
2019-04-12T10:37:30.474Z,3.83
2019-04-12T10:39:59.021Z,5.20
2019-04-12T10:42:27.502Z,4.43
2019-04-12T10:45:00.807Z,3.90
2019-04-12T10:47:30.911Z,3.60
2019-04-12T10:50:03.998Z,5.63
2019-04-12T10:52:43.135Z,3.30
2019-04-12T10:55:30.396Z,4.20
2019-04-12T10:57:59.224Z,4.00
2019-04-12T11:00:29.478Z,4.20
2019-04-12T11:02:58.013Z,3.63
2019-04-12T11:05:39.569Z,3.20
2019-04-12T11:08:08.179Z,3.50
2019-04-12T11:13:46.780Z,3.70
2019-04-12T11:16:44.532Z,3.60
2019-04-12T11:19:14.377Z,3.67
2019-04-12T11:21:42.838Z,3.53
2019-04-12T11:24:11.342Z,3.50
2019-04-12T11:26:39.809Z,3.73
2019-04-12T11:29:16.859Z,3.30
2019-04-12T11:31:38.535Z,3.77
2019-04-12T11:34:07.106Z,3.53
2019-04-12T11:36:35.585Z,3.63
2019-04-12T11:39:06.206Z,4.00
2019-04-12T11:41:35.007Z,3.47
2019-04-12T11:44:04.670Z,3.53
2019-04-12T11:46:37.483Z,3.80
2019-04-12T11:49:03.812Z,3.77
2019-04-12T11:51:41.913Z,3.20
2019-04-12T11:54:23.410Z,3.20
2019-04-12T11:56:52.318Z,3.47
2019-04-12T11:59:29.296Z,3.30
2019-04-12T12:02:01.805Z,3.70
2019-04-12T12:04:31.947Z,3.40
2019-04-12T12:07:04.808Z,3.23
2019-04-12T12:09:43.748Z,3.77
2019-04-12T12:12:34.726Z,4.73
2019-04-12T12:15:05.297Z,6.70
2019-04-12T12:17:35.465Z,3.83
2019-04-12T12:20:05.481Z,4.80
2019-04-12T12:22:33.941Z,4.30
2019-04-12T12:25:02.409Z,3.63
2019-04-12T12:27:30.941Z,3.60
2019-04-12T12:29:59.493Z,3.90
2019-04-12T12:32:28.028Z,4.20
2019-04-12T12:34:56.560Z,3.70
2019-04-12T12:37:25.093Z,3.40
2019-04-12T12:39:53.608Z,3.80
2019-04-12T12:42:22.080Z,4.47
2019-04-12T12:44:50.636Z,3.30
2019-04-12T12:47:24.021Z,3.87
2019-04-12T12:49:56.009Z,3.90
2019-04-12T12:55:15.245Z,4.00
2019-04-12T13:04:35.121Z,3.70
2019-04-12T13:07:03.595Z,3.73
2019-04-12T13:09:32.446Z,3.50
2019-04-12T13:12:01.005Z,3.47
2019-04-12T13:14:41.379Z,3.93
2019-04-12T13:17:09.985Z,4.00
2019-04-12T13:19:38.505Z,4.00
2019-04-12T13:22:08.357Z,4.07
2019-04-12T13:24:36.843Z,4.30
2019-04-12T13:27:06.006Z,4.40
2019-04-12T13:29:34.547Z,4.27
2019-04-12T13:32:21.655Z,4.40
2019-04-12T13:35:03.689Z,4.27
2019-04-12T13:37:34.662Z,5.07
2019-04-12T13:40:07.877Z,4.10
2019-04-12T13:55:02.190Z,4.17
2019-04-12T14:01:03.279Z,4.37
2019-04-12T14:03:31.786Z,4.03
2019-04-12T14:06:00.354Z,3.77
2019-04-12T14:08:28.891Z,4.00
2019-04-12T14:10:57.452Z,5.07
2019-04-12T14:13:25.927Z,4.30
2019-04-12T14:16:25.112Z,4.40
2019-04-12T14:18:54.226Z,4.67
2019-04-12T14:30:32.949Z,3.63
2019-04-12T14:37:01.120Z,4.50
2019-04-12T14:40:15.674Z,4.50
2019-04-12T14:42:44.470Z,4.30
2019-04-12T14:45:37.413Z,4.33
2019-04-12T15:05:55.820Z,4.43
2019-04-12T15:09:14.043Z,3.93
2019-04-12T15:11:42.591Z,4.10
2019-04-12T15:14:11.140Z,4.17
2019-04-12T15:16:40.638Z,4.60
2019-04-12T15:19:10.456Z,3.90
2019-04-12T15:21:39.020Z,3.83
2019-04-12T15:24:07.522Z,3.97
2019-04-12T15:26:36.072Z,3.97
2019-04-12T15:31:52.428Z,3.87
2019-04-12T15:34:20.978Z,4.00
2019-04-12T15:36:58.344Z,3.93
2019-04-12T15:39:26.941Z,3.40
2019-04-12T15:42:01.494Z,3.70
2019-04-12T15:44:30.226Z,3.40
2019-04-12T15:47:08.850Z,4.00
2019-04-12T15:49:49.279Z,4.17
2019-04-12T15:52:51.670Z,4.40
2019-04-12T15:55:22.918Z,4.10
2019-04-12T15:57:51.371Z,4.10
2019-04-12T16:00:39.395Z,4.93
2019-04-12T16:03:07.884Z,4.47
2019-04-12T16:12:31.288Z,4.90
2019-04-12T16:15:24.968Z,4.57
2019-04-12T16:18:12.262Z,3.37
2019-04-12T16:20:41.702Z,4.70
2019-04-12T16:23:45.574Z,3.73
2019-04-12T16:26:14.635Z,3.63
2019-04-12T16:29:13.123Z,4.70
2019-04-12T16:32:08.588Z,4.57
2019-04-12T16:35:07.307Z,4.70
2019-04-12T16:40:16.661Z,4.80
2019-04-12T16:42:45.129Z,5.27
2019-04-12T16:45:14.200Z,4.60
2019-04-12T16:47:42.672Z,4.53
2019-04-12T16:50:11.868Z,4.33
2019-04-12T16:52:40.408Z,5.40
2019-04-12T16:55:09.335Z,3.90
2019-04-12T16:57:37.811Z,4.90
2019-04-12T17:03:02.105Z,4.73
2019-04-12T17:05:36.228Z,5.10
2019-04-12T17:08:05.846Z,4.73
2019-04-12T17:10:34.920Z,4.00
2019-04-12T17:13:11.664Z,4.73
2019-04-12T17:15:42.278Z,5.00
2019-04-12T17:18:10.804Z,5.87
2019-04-12T17:20:39.294Z,4.67
2019-04-12T17:23:07.826Z,5.13
2019-04-12T17:25:36.290Z,5.37
2019-04-12T17:28:04.829Z,5.93
2019-04-12T17:30:33.793Z,5.97
2019-04-12T17:33:02.322Z,4.83
2019-04-12T17:35:30.837Z,5.07
2019-04-12T17:38:00.862Z,4.83
2019-04-12T17:40:29.352Z,5.83
2019-04-12T17:42:57.823Z,5.40
2019-04-12T17:45:26.307Z,4.97
2019-04-12T17:47:54.772Z,4.80
2019-04-12T17:50:42.811Z,5.17
2019-04-12T17:53:14.474Z,5.73
2019-04-12T17:55:47.355Z,5.27
2019-04-12T17:58:15.815Z,5.97
2019-04-12T18:00:52.213Z,6.53
2019-04-12T18:03:26.837Z,5.40
2019-04-12T18:05:58.325Z,6.20
2019-04-12T18:08:27.291Z,6.53
2019-04-12T18:10:56.044Z,6.20
2019-04-12T18:13:32.114Z,5.97
2019-04-12T18:16:13.137Z,5.20
2019-04-12T18:18:41.686Z,5.73
2019-04-12T18:21:10.175Z,6.87
2019-04-12T18:23:38.646Z,6.33
2019-04-12T18:26:07.116Z,5.40
2019-04-12T18:28:35.579Z,5.70
2019-04-12T18:31:04.266Z,4.90
2019-04-12T18:33:32.798Z,5.90
2019-04-12T18:36:01.295Z,5.80
2019-04-12T18:38:29.818Z,5.70
2019-04-12T18:40:58.391Z,5.70
2019-04-12T18:43:26.858Z,6.20
2019-04-12T18:45:55.496Z,6.20
2019-04-12T18:48:24.145Z,6.00
2019-04-12T18:50:52.760Z,5.87
2019-04-12T18:53:21.291Z,5.40
2019-04-12T18:55:50.508Z,6.40
2019-04-12T21:40:31.854Z,5.67
2019-04-12T21:43:00.330Z,5.63
2019-04-12T21:45:29.025Z,5.50
2019-04-12T21:47:57.609Z,6.60
2019-04-12T21:50:26.174Z,5.33
2019-04-12T21:52:54.877Z,5.37
2019-04-12T21:55:23.514Z,4.67
2019-04-12T21:57:52.136Z,5.03
2019-04-12T22:00:25.346Z,5.03
2019-04-12T22:02:54.021Z,4.62
2019-04-12T22:05:23.168Z,4.77
2019-04-12T22:07:51.885Z,4.33
2019-04-12T22:10:36.135Z,4.17
2019-04-12T22:13:13.751Z,4.45
2019-04-12T22:19:29.403Z,4.53
2019-04-12T22:22:05.187Z,4.90
2019-04-12T22:30:36.071Z,5.50
2019-04-12T22:33:06.389Z,4.80
2019-04-12T22:35:42.031Z,6.17
2019-04-12T22:41:36.216Z,6.00
2019-04-12T22:44:09.164Z,5.53
2019-04-12T22:53:53.278Z,6.00
2019-04-12T23:05:17.825Z,6.63
2019-04-12T23:08:03.709Z,6.10
2019-04-12T23:10:32.313Z,5.90
2019-04-12T23:13:00.851Z,7.00
2019-04-12T23:15:32.223Z,6.87
2019-04-12T23:18:00.733Z,5.85
2019-04-12T23:20:40.251Z,6.50
2019-04-12T23:23:12.037Z,6.20
2019-04-12T23:28:41.471Z,6.37
2019-04-12T23:31:20.252Z,6.75
2019-04-12T23:34:03.978Z,5.50
2019-04-12T23:36:33.187Z,6.20
2019-04-12T23:39:02.428Z,6.33
2019-04-12T23:44:27.748Z,5.90
2019-04-12T23:47:20.298Z,5.57
2019-04-12T23:49:46.684Z,5.00
2019-04-12T23:52:18.540Z,5.67
2019-04-12T23:54:47.271Z,5.80
2019-04-12T23:57:15.904Z,5.30
